台北 の空港の天気 - METARとTAF

台湾桃園国際空港 ( RCTP / TPE ) - 中華民国(台湾) 台北市
飛行場実況気象(Metar)
観測時間02/28 06:00 CST (02/27 22:00 UTC)
風向・風速東北東 6m/s
視程6000m
天気現象
少しの雲 雲底高度 490m
全天の8割程度の雲 雲底高度 850m
気温15℃
湿度82%
気圧1022hPa
METARRCTP 272200Z 06012KT 6000 FEW016 BKN028 15/12 Q1022 NOSIG RMK A3019
過去の天気等 Google飛行場航空写真 Wunderground天気予報

過去48時間のMETAR

飛行場予報(TAF)
発表時間: 2/28 01:03 CST (2/27 17:03 UTC)
予報対象時間: 28日2時 CST ~ 1日8時 CST
風向・風速東北東 8m/s
視程7,000m
少しの雲 雲底高度 460m
全天の8割程度の雲 雲底高度 980m
28日2時 CST ~ 28日8時 CST に一時的に
風向・風速東 5m/s
視程5,000m
天気現象煙霧
28日22時 CST ~ 1日4時 CST に一時的に
風向・風速北東 5m/s
少しの雲 雲底高度 370m
全天の8割程度の雲 雲底高度 610m
全天の8割程度の雲 雲底高度 1,070m
1日4時 CST ~ 1日6時 CST に徐々に
風向・風速北 4m/s
TAF RCTP 271703Z 2718/2824 06015KT 7000 FEW015 BKN032
TEMPO 2718/2724 08010KT 5000 HZ
TEMPO 2814/2820 04010KT FEW012 BKN020 BKN035
BECMG 2820/2822 35008KT